WADDWIOO

Guest
Details From WADD - Denpasar Ngurah Rai Intl
To WIOO - Pontianak Supadio
Flight Number -
Tags generated
Created
Modified
Stats Distance 624 nm / 1,156 km
Max Altitude 34,000 ft / 10,363 m
Waypoints 6
Social Downloads 0
Likes 0
Share VATSIM

Download

Looking for another format? Having issues loading an existing format? Contact us
Advertisement - Login to hide

Notes

Basic altitude profile: - Ascent Rate: 2500ft/min - Ascent Speed: 250kts - Cruise Altitude: 35000ft - Cruise Speed: 420kts - Descent Rate: 1500ft/min - Descent Speed: 250kts Options: - Use NATs: yes - Use PACOTS: yes - Use low airways: yes - Use high airways: yes

Route

WADD BLI G464 OSUKA WIOO

ID Type Via Altitude Latitude Longitude Leg Dist Tot Dist Heading (true) Name
O WADD APT - 0 ft / 0 m -8.74817˚ 115.16717˚ - 0 nm - Denpasar Ngurah Rai Intl
BLI VOR - 0 ft / 0 m -8.75058˚ 115.16331˚ 0 nm 0 nm 238° / 238° BALI VOR-DME
KOLTA FIX G464 (AWY-LO) 34,000 ft / 10,363 m -6.46473˚ 113.82785˚ 158 nm 158 nm 330° / 330° -
PKN VOR G464 (AWY-HI) 34,000 ft / 10,363 m -2.72648˚ 111.69597˚ 258 nm 417 nm 330° / 330° PANGKALAN BUN VOR-DME
OSUKA FIX G464 (AWY-HI) 24,500 ft / 7,468 m -1.29167˚ 110.41167˚ 115 nm 532 nm 318° / 318° -
O WIOO APT - 0 ft / 0 m -0.15071˚ 109.40389˚ 91 nm 624 nm 319° / 319° Pontianak Supadio

Altitude Profile

Advertisement - Login to hide

Weather


0- 5 10 15 20 25 30 35+ Temperature / ° C

Clouds and Precipitation
Forecast for 2017-12-11 06:00 UTC. Updated an hour ago

Ground ~20,000 ft ~40,000 ft Winds

WADD

Details ICAO WADD (DPS)
Name Denpasar Ngurah Rai Intl
Region Indonesia
Timezone Asia/Makassar (UTC+8.0)
Stats Elevation 14 ft / 4 m (AMSL)
Location -8.748169° 115.167174°
Runways 1
Magnetic Variation 1.056° E

METAR

WADD 110400Z 31007KT 9999 BKN013 28/25 Q1010 NOSIG

Decode

TAF

Not found

Departure Runways

ID Width Length Bearing (true) Bearing (mag) Surface Threshold Offset Overrun Length
09 148 ft / 45 m 9,779 ft / 2,981 m 87.71° 86.65° Asphalt 121 ft / 37 m 75 ft / 23 m
27 148 ft / 45 m 9,779 ft / 2,981 m 267.70° 266.64° Asphalt 0 ft / 0 m 197 ft / 60 m

WIOO

Details ICAO WIOO (PNK)
Name Pontianak Supadio
Region Indonesia
Timezone Asia/Pontianak (UTC+7.0)
Stats Elevation 10 ft / 3 m (AMSL)
Location -0.150708° 109.403890°
Runways 1
Magnetic Variation 0.499° E

METAR

WIOO 110400Z 33004KT 9999 BKN011 30/25 Q1011 NOSIG

Decode

TAF

Not found

Destination Runways

ID Width Length Bearing (true) Bearing (mag) Surface Threshold Offset Overrun Length
15 98 ft / 30 m 7,400 ft / 2,256 m 157.81° 157.31° Asphalt 0 ft / 0 m 213 ft / 65 m
33 98 ft / 30 m 7,400 ft / 2,256 m 337.81° 337.31° Asphalt 0 ft / 0 m 197 ft / 60 m

Approach Navaids

Runway Type Ident Frequency Range Bearing (true) Bearing (mag) Slope Elevation
15 Localiser IPNK 111.30 MHz 18 nm / 33 km 157.35° 156.85° - 10 ft / 3 m (AMSL)
15 Glidescope IPNK 111.30 MHz 10 nm / 19 km 157.81° 157.31° 3.00° 10 ft / 3 m (AMSL)